createdAt,value
2017-04-30T00:00:56.866Z,20.56
2017-04-30T00:02:06.537Z,20.75
2017-04-30T00:03:17.071Z,20.65
2017-04-30T00:04:27.372Z,20.75
2017-04-30T00:05:37.662Z,20.65
2017-04-30T00:06:47.635Z,20.65
2017-04-30T00:07:57.920Z,20.65
2017-04-30T00:09:08.459Z,20.85
2017-04-30T00:10:18.125Z,20.75
2017-04-30T00:11:28.104Z,20.75
2017-04-30T00:12:38.398Z,20.65
2017-04-30T00:13:48.373Z,20.75
2017-04-30T00:14:58.602Z,20.65
2017-04-30T00:16:08.277Z,20.75
2017-04-30T00:17:18.571Z,20.75
2017-04-30T00:18:28.852Z,20.65
2017-04-30T00:19:39.138Z,20.75
2017-04-30T00:20:49.368Z,20.65
2017-04-30T00:21:59.338Z,20.47
2017-04-30T00:23:09.623Z,20.75
2017-04-30T00:24:19.904Z,20.56
2017-04-30T00:25:30.215Z,20.75
2017-04-30T00:26:40.740Z,20.56
2017-04-30T00:27:50.750Z,20.47
2017-04-30T00:29:00.741Z,20.47
2017-04-30T00:30:10.713Z,20.47
2017-04-30T00:31:20.992Z,20.47
2017-04-30T00:32:31.530Z,20.47
2017-04-30T00:33:41.861Z,20.47
2017-04-30T00:34:51.836Z,20.85
2017-04-30T00:36:01.518Z,20.75
2017-04-30T00:37:11.805Z,20.47
2017-04-30T00:38:22.031Z,20.47
2017-04-30T00:39:32.537Z,20.47
2017-04-30T00:40:42.526Z,20.47
2017-04-30T00:41:52.503Z,20.47
2017-04-30T00:43:02.475Z,20.85
2017-04-30T00:44:13.015Z,20.56
2017-04-30T00:45:23.321Z,20.56
2017-04-30T00:46:33.229Z,20.85
2017-04-30T00:47:42.888Z,20.47
2017-04-30T00:48:53.171Z,20.47
2017-04-30T00:50:03.809Z,20.85
2017-04-30T00:51:14.097Z,20.85
2017-04-30T00:52:24.383Z,20.85
2017-04-30T00:53:34.039Z,20.47
2017-04-30T00:54:44.523Z,20.85
2017-04-30T00:55:55.111Z,20.75
2017-04-30T00:57:05.410Z,20.75
2017-04-30T00:58:15.703Z,20.85
2017-04-30T00:59:25.983Z,20.75
2017-04-30T01:00:36.271Z,20.94
2017-04-30T01:01:46.812Z,20.85
2017-04-30T01:02:57.105Z,20.85
2017-04-30T01:04:07.438Z,20.47
2017-04-30T01:05:17.726Z,20.85
2017-04-30T01:06:27.692Z,20.85
2017-04-30T01:07:38.226Z,20.75
2017-04-30T01:08:48.206Z,20.94
2017-04-30T01:09:58.495Z,20.75
2017-04-30T01:11:08.788Z,20.75
2017-04-30T01:12:19.072Z,20.85
2017-04-30T01:13:29.625Z,20.85
2017-04-30T01:14:39.302Z,20.75
2017-04-30T01:15:49.293Z,20.75
2017-04-30T01:16:59.624Z,20.75
2017-04-30T01:18:09.913Z,20.37
2017-04-30T01:19:20.449Z,20.56
2017-04-30T01:20:30.115Z,20.56
2017-04-30T01:21:40.083Z,20.56
2017-04-30T01:22:50.046Z,20.75
2017-04-30T01:24:00.326Z,21.04
2017-04-30T01:25:10.861Z,21.04
2017-04-30T01:26:21.133Z,20.85
2017-04-30T01:27:31.107Z,20.56
2017-04-30T01:28:41.082Z,20.65
2017-04-30T01:29:51.365Z,20.85
2017-04-30T01:31:01.590Z,20.85
2017-04-30T01:32:11.606Z,20.75
2017-04-30T01:33:21.897Z,20.85
2017-04-30T01:34:32.179Z,20.47
2017-04-30T01:35:42.151Z,20.47
2017-04-30T01:36:52.677Z,20.75
2017-04-30T01:38:02.952Z,20.56
2017-04-30T01:39:13.236Z,20.75
2017-04-30T01:40:22.900Z,20.75
2017-04-30T01:41:33.190Z,20.75
2017-04-30T01:42:43.737Z,20.56
2017-04-30T01:43:53.715Z,20.56
2017-04-30T01:45:03.704Z,20.75
2017-04-30T01:46:13.980Z,20.47
2017-04-30T01:47:23.953Z,20.85
2017-04-30T01:48:34.485Z,20.75
2017-04-30T01:49:44.771Z,20.85
2017-04-30T01:50:54.757Z,20.75
2017-04-30T01:52:04.723Z,20.37
2017-04-30T01:53:14.697Z,20.85
2017-04-30T01:54:25.223Z,20.75
2017-04-30T01:55:34.888Z,20.75
2017-04-30T01:56:45.163Z,20.75
2017-04-30T01:57:55.442Z,20.75
2017-04-30T01:59:05.106Z,20.75
2017-04-30T02:00:15.331Z,20.47
2017-04-30T02:01:25.608Z,20.75
2017-04-30T02:02:35.886Z,20.75
2017-04-30T02:03:46.168Z,20.94
2017-04-30T02:04:56.456Z,20.75
2017-04-30T02:06:06.993Z,20.47
2017-04-30T02:07:16.970Z,20.85
2017-04-30T02:08:26.631Z,20.75
2017-04-30T02:09:36.915Z,20.56
2017-04-30T02:10:47.198Z,20.75
2017-04-30T02:11:57.730Z,20.94
2017-04-30T02:13:08.016Z,20.85
2017-04-30T02:14:18.324Z,20.56
2017-04-30T02:15:28.608Z,20.85
2017-04-30T02:16:38.890Z,20.75
2017-04-30T02:17:49.479Z,20.85
2017-04-30T02:18:59.458Z,21.04
2017-04-30T02:20:09.729Z,20.75
2017-04-30T02:21:20.011Z,20.85
2017-04-30T02:22:29.982Z,20.94
2017-04-30T02:23:40.263Z,20.94
2017-04-30T02:24:50.231Z,20.75
2017-04-30T02:26:00.210Z,21.04
2017-04-30T02:27:09.873Z,20.75
2017-04-30T02:28:19.842Z,20.85
2017-04-30T02:29:30.387Z,20.94
2017-04-30T02:30:40.675Z,20.94
2017-04-30T02:31:50.655Z,20.94
2017-04-30T02:33:00.944Z,20.94
2017-04-30T02:34:11.253Z,21.04
2017-04-30T02:35:21.781Z,20.85
2017-04-30T02:36:32.062Z,20.94
2017-04-30T02:37:41.713Z,21.04
2017-04-30T02:38:51.684Z,20.94
2017-04-30T02:40:01.973Z,20.85
2017-04-30T02:41:12.504Z,20.94
2017-04-30T02:42:22.488Z,20.94
2017-04-30T02:43:32.771Z,20.94
2017-04-30T02:44:42.439Z,20.75
2017-04-30T02:45:52.714Z,20.85
2017-04-30T02:47:02.941Z,21.04
2017-04-30T02:48:13.231Z,21.04
2017-04-30T02:49:22.900Z,20.94
2017-04-30T02:50:33.227Z,20.94
2017-04-30T02:51:43.194Z,20.94
2017-04-30T02:52:53.721Z,20.94
2017-04-30T02:54:04.018Z,21.04
2017-04-30T02:55:14.317Z,20.75
2017-04-30T02:56:24.600Z,20.85
2017-04-30T02:57:34.888Z,20.85
2017-04-30T02:58:45.108Z,20.94
2017-04-30T02:59:55.391Z,21.04
2017-04-30T03:01:05.707Z,20.85
2017-04-30T03:02:15.993Z,20.94
2017-04-30T03:03:26.293Z,20.94
2017-04-30T03:04:36.831Z,20.85
2017-04-30T03:05:47.133Z,20.84
2017-04-30T03:06:57.097Z,20.85
2017-04-30T03:08:07.378Z,20.85
2017-04-30T03:09:17.654Z,20.94
2017-04-30T03:10:28.198Z,20.94
2017-04-30T03:11:38.481Z,20.94
2017-04-30T03:12:48.795Z,20.74
2017-04-30T03:13:58.472Z,20.85
2017-04-30T03:15:08.445Z,20.85
2017-04-30T03:16:18.976Z,20.65
2017-04-30T03:17:28.965Z,20.75
2017-04-30T03:18:39.249Z,20.85
2017-04-30T03:19:48.903Z,20.84
2017-04-30T03:20:58.872Z,21.03
2017-04-30T03:22:09.097Z,21.03
2017-04-30T03:23:19.374Z,20.94
2017-04-30T03:24:29.661Z,20.94
2017-04-30T03:25:39.940Z,21.03
2017-04-30T03:26:50.211Z,20.94
2017-04-30T03:28:00.752Z,20.94
2017-04-30T03:29:11.031Z,20.94
2017-04-30T03:30:20.999Z,20.94
2017-04-30T03:31:31.275Z,20.84
2017-04-30T03:32:41.556Z,20.74
2017-04-30T03:33:52.108Z,20.74
2017-04-30T03:35:02.399Z,20.84
2017-04-30T03:36:12.675Z,20.94
2017-04-30T03:37:22.963Z,20.94
2017-04-30T03:38:33.236Z,20.94
2017-04-30T03:39:43.145Z,20.74
2017-04-30T03:40:53.117Z,20.94
2017-04-30T03:42:03.080Z,20.94
2017-04-30T03:43:12.436Z,20.84
2017-04-30T03:44:22.724Z,20.55
2017-04-30T03:45:33.279Z,20.84
2017-04-30T03:46:43.277Z,20.94
2017-04-30T03:47:53.247Z,20.84
2017-04-30T03:49:03.217Z,20.74
2017-04-30T03:50:13.185Z,20.45
2017-04-30T03:51:23.758Z,20.74
2017-04-30T03:52:34.043Z,20.84
2017-04-30T03:53:44.016Z,20.84
2017-04-30T03:54:53.995Z,20.74
2017-04-30T03:56:04.280Z,20.74
2017-04-30T03:57:14.516Z,20.94
2017-04-30T03:58:24.490Z,20.84
2017-04-30T03:59:34.778Z,20.74
2017-04-30T04:00:45.071Z,20.74
2017-04-30T04:01:55.041Z,20.94
2017-04-30T04:03:05.575Z,20.84
2017-04-30T04:04:15.856Z,20.84
2017-04-30T04:05:25.825Z,20.84
2017-04-30T04:06:36.107Z,20.84
2017-04-30T04:07:46.071Z,20.94
2017-04-30T04:08:55.986Z,20.74
2017-04-30T04:10:05.962Z,20.94
2017-04-30T04:11:15.932Z,20.75
2017-04-30T04:12:26.217Z,20.75
2017-04-30T04:13:36.198Z,21.03
2017-04-30T04:14:46.740Z,20.84
2017-04-30T04:15:57.032Z,20.84
2017-04-30T04:17:07.336Z,21.04
2017-04-30T04:18:17.620Z,20.94
2017-04-30T04:19:27.604Z,21.12
2017-04-30T04:20:38.136Z,20.94
2017-04-30T04:21:48.413Z,20.94
2017-04-30T04:22:58.688Z,20.94
2017-04-30T04:24:08.657Z,21.04
2017-04-30T04:25:18.938Z,21.14
2017-04-30T04:26:29.487Z,21.04
2017-04-30T04:27:39.769Z,20.94
2017-04-30T04:28:50.068Z,20.94
2017-04-30T04:30:00.348Z,20.85
2017-04-30T04:31:10.643Z,20.85
2017-04-30T04:32:20.851Z,20.94
2017-04-30T04:33:30.822Z,20.75
2017-04-30T04:34:41.109Z,20.85
2017-04-30T04:35:51.379Z,20.75
2017-04-30T04:37:01.358Z,20.75
2017-04-30T04:38:11.884Z,20.47
2017-04-30T04:39:21.860Z,20.47
2017-04-30T04:40:32.180Z,20.75
2017-04-30T04:41:42.184Z,20.94
2017-04-30T04:42:52.157Z,20.65
2017-04-30T04:44:02.693Z,20.47
2017-04-30T04:45:12.983Z,20.65
2017-04-30T04:46:23.253Z,20.56
2017-04-30T04:47:33.533Z,20.56
2017-04-30T04:48:43.817Z,20.75
2017-04-30T04:49:54.368Z,20.47
2017-04-30T04:51:04.653Z,20.37
2017-04-30T04:52:14.641Z,20.37
2017-04-30T04:53:24.604Z,20.27
2017-04-30T04:54:34.887Z,20.17
2017-04-30T04:55:45.104Z,20.27
2017-04-30T04:56:55.382Z,20.27
2017-04-30T04:58:05.370Z,20.37
2017-04-30T04:59:15.030Z,20.27
2017-04-30T05:00:25.320Z,20.37
2017-04-30T05:01:35.537Z,20.27
2017-04-30T05:02:45.526Z,20.37
2017-04-30T05:03:54.875Z,20.37
2017-04-30T05:05:05.155Z,20.28
2017-04-30T05:06:15.436Z,20.37
2017-04-30T05:07:25.651Z,20.28
2017-04-30T05:08:35.624Z,20.38
2017-04-30T05:09:45.595Z,20.37
2017-04-30T05:10:55.565Z,20.27
2017-04-30T05:12:05.533Z,20.38
2017-04-30T05:13:16.087Z,20.28
2017-04-30T05:14:26.062Z,20.47
2017-04-30T05:15:35.731Z,20.38
2017-04-30T05:16:46.006Z,20.37
2017-04-30T05:17:56.299Z,20.27
2017-04-30T05:19:06.531Z,20.37
2017-04-30T05:20:16.809Z,20.09
2017-04-30T05:21:27.098Z,20.18
2017-04-30T05:22:37.377Z,20.17
2017-04-30T05:23:47.659Z,20.38
2017-04-30T05:24:57.258Z,20.18
2017-04-30T05:26:07.548Z,20.28
2017-04-30T05:27:17.834Z,20.38
2017-04-30T05:28:28.123Z,20.38
2017-04-30T05:29:38.407Z,20.28
2017-04-30T05:30:48.942Z,20.38
2017-04-30T05:31:59.226Z,20.18
2017-04-30T05:33:09.514Z,20.38
2017-04-30T05:34:19.803Z,20.28
2017-04-30T05:35:30.091Z,20.18
2017-04-30T05:36:39.997Z,20.18
2017-04-30T05:37:50.285Z,20.28
2017-04-30T05:39:00.574Z,20.38
2017-04-30T05:40:10.558Z,20.28
2017-04-30T05:41:20.835Z,20.38
2017-04-30T05:42:31.055Z,20.09
2017-04-30T05:43:41.035Z,20.18
2017-04-30T05:44:51.333Z,20.28
2017-04-30T05:46:01.316Z,20.18
2017-04-30T05:47:11.585Z,20
2017-04-30T05:48:21.812Z,20.18
2017-04-30T05:49:32.092Z,20.18
2017-04-30T05:50:42.078Z,20.18
2017-04-30T05:51:52.372Z,20.28
2017-04-30T05:53:02.665Z,20.28
2017-04-30T05:54:12.881Z,20.28
2017-04-30T05:55:22.853Z,20.38
2017-04-30T05:56:32.842Z,20.47
2017-04-30T05:57:43.121Z,20.28
2017-04-30T05:58:53.408Z,20.38
2017-04-30T06:00:03.961Z,20.18
2017-04-30T06:01:13.932Z,20.09
2017-04-30T06:02:24.222Z,20.18
2017-04-30T06:03:34.520Z,20.28
2017-04-30T06:04:44.806Z,20.38
2017-04-30T06:05:55.339Z,20.28
2017-04-30T06:07:05.615Z,20.38
2017-04-30T06:08:15.278Z,20.18
2017-04-30T06:09:25.257Z,20.18
2017-04-30T06:10:35.556Z,20
2017-04-30T06:11:45.776Z,20.18
2017-04-30T06:12:56.065Z,20.28
2017-04-30T06:14:06.362Z,20.28
2017-04-30T06:15:16.333Z,20.38
2017-04-30T06:16:26.631Z,20.28
2017-04-30T06:17:37.183Z,20.28
2017-04-30T06:18:47.466Z,20.38
2017-04-30T06:19:57.766Z,20.38
2017-04-30T06:21:08.051Z,20.18
2017-04-30T06:22:18.334Z,20.18
2017-04-30T06:23:28.556Z,20.28
2017-04-30T06:24:38.841Z,20.38
2017-04-30T06:25:49.122Z,20.38
2017-04-30T06:26:59.100Z,20.18
2017-04-30T06:28:09.077Z,20.18
2017-04-30T06:29:19.321Z,20.18
2017-04-30T06:30:29.618Z,20.28
2017-04-30T06:31:39.599Z,20.28
2017-04-30T06:32:49.578Z,20.18
2017-04-30T06:33:59.868Z,20.18
2017-04-30T06:35:09.780Z,20.38
2017-04-30T06:36:20.053Z,20.18
2017-04-30T06:37:30.023Z,20.47
2017-04-30T06:38:39.993Z,20.28
2017-04-30T06:39:50.274Z,20.18
2017-04-30T06:41:00.512Z,20.38
2017-04-30T06:42:10.804Z,20.38
2017-04-30T06:43:21.084Z,20.18
2017-04-30T06:44:31.396Z,20.47
2017-04-30T06:45:41.688Z,20.28
2017-04-30T06:46:51.977Z,20.28
2017-04-30T06:48:01.966Z,20.28
2017-04-30T06:49:12.247Z,20.28
2017-04-30T06:50:22.570Z,20.28
2017-04-30T06:51:32.867Z,20.18
2017-04-30T06:52:43.405Z,20.38
2017-04-30T06:53:53.386Z,20.38
2017-04-30T06:55:03.674Z,20.38
2017-04-30T06:56:13.957Z,20.28
2017-04-30T06:57:23.923Z,20.18
2017-04-30T06:58:34.154Z,20.28
2017-04-30T06:59:44.140Z,20.38
2017-04-30T07:00:54.482Z,20.47
2017-04-30T07:02:04.776Z,20.28
2017-04-30T07:03:14.762Z,20.29
2017-04-30T07:04:25.003Z,20.28
2017-04-30T07:05:35.308Z,20.2
2017-04-30T07:06:45.287Z,20.38
2017-04-30T07:07:55.577Z,20.18
2017-04-30T07:09:05.880Z,20.18
2017-04-30T07:10:16.430Z,20.47
2017-04-30T07:11:26.423Z,20.28
2017-04-30T07:12:36.703Z,20.28
2017-04-30T07:13:47.007Z,20.28
2017-04-30T07:14:56.986Z,20.18
2017-04-30T07:16:07.518Z,20.28
2017-04-30T07:17:17.808Z,20.18
2017-04-30T07:18:27.800Z,20.18
2017-04-30T07:19:38.097Z,20.38
2017-04-30T07:20:48.060Z,20.28
2017-04-30T07:21:58.601Z,20.18
2017-04-30T07:23:08.571Z,20.38
2017-04-30T07:24:18.857Z,20.28
2017-04-30T07:25:29.145Z,20.28
2017-04-30T07:26:39.116Z,20.28
2017-04-30T07:27:49.348Z,20.28
2017-04-30T07:28:59.644Z,20.28
2017-04-30T07:30:09.940Z,20.39
2017-04-30T07:31:20.234Z,20.29
2017-04-30T07:32:29.910Z,20.2
2017-04-30T07:33:40.133Z,20.28
2017-04-30T07:34:50.115Z,20.2
2017-04-30T07:36:00.405Z,20.29
2017-04-30T07:37:10.685Z,20.18
2017-04-30T07:38:20.671Z,20.39
2017-04-30T07:39:31.211Z,20.18
2017-04-30T07:40:41.228Z,20.2
2017-04-30T07:41:51.210Z,20.2
2017-04-30T07:43:01.192Z,20.38
2017-04-30T07:44:11.473Z,20.28
2017-04-30T07:45:21.700Z,20.38
2017-04-30T07:46:31.986Z,20.2
2017-04-30T07:47:41.983Z,20.39
2017-04-30T07:48:51.967Z,20.39
2017-04-30T07:50:02.253Z,20.38
2017-04-30T07:51:12.499Z,20.38
2017-04-30T07:52:22.793Z,20.2
2017-04-30T07:53:33.078Z,20.29
2017-04-30T07:54:43.363Z,20.48
2017-04-30T07:55:53.675Z,20.39
2017-04-30T07:57:04.210Z,20.29
2017-04-30T07:58:14.504Z,20.58
2017-04-30T07:59:24.174Z,20.29
2017-04-30T08:00:34.482Z,20.2
2017-04-30T08:01:44.469Z,20.29
2017-04-30T08:02:55.013Z,20.2
2017-04-30T08:04:05.311Z,20.2
2017-04-30T08:05:15.310Z,20.29
2017-04-30T08:06:24.991Z,20.39
2017-04-30T08:07:35.289Z,20.39
2017-04-30T08:08:45.521Z,20.29
2017-04-30T08:09:55.817Z,20.1
2017-04-30T08:11:05.483Z,20.29
2017-04-30T08:12:15.763Z,20.57
2017-04-30T08:13:25.732Z,20.39
2017-04-30T08:14:36.268Z,20.58
2017-04-30T08:15:46.567Z,20.58
2017-04-30T08:16:56.555Z,20.48
2017-04-30T08:18:06.842Z,20.39
2017-04-30T08:19:17.136Z,20.58
2017-04-30T08:20:27.666Z,20.58
2017-04-30T08:21:37.974Z,20.48
2017-04-30T08:22:47.953Z,20.39
2017-04-30T08:23:57.618Z,20.58
2017-04-30T08:25:07.923Z,20.29
2017-04-30T08:26:18.165Z,20.58
2017-04-30T08:27:28.453Z,20.58
2017-04-30T08:28:38.744Z,20.48
2017-04-30T08:29:48.723Z,20.29
2017-04-30T08:30:59.011Z,20.29
2017-04-30T08:32:08.957Z,20.29
2017-04-30T08:33:18.934Z,20.29
2017-04-30T08:34:29.225Z,20.29
2017-04-30T08:35:39.207Z,20.2
2017-04-30T08:36:49.195Z,20.29
2017-04-30T08:37:59.438Z,20.29
2017-04-30T08:39:09.734Z,20.28
2017-04-30T08:40:19.723Z,20.29
2017-04-30T08:41:29.401Z,20.2
2017-04-30T08:42:39.695Z,20.29
2017-04-30T08:43:50.250Z,20.29
2017-04-30T08:45:00.332Z,20.28
2017-04-30T08:46:10.629Z,20.39
2017-04-30T08:47:20.299Z,20.39
2017-04-30T08:48:30.593Z,20.2
2017-04-30T08:49:41.130Z,20.18
2017-04-30T08:50:51.438Z,20.1
2017-04-30T08:52:01.742Z,20.2
2017-04-30T08:53:12.041Z,20.2
2017-04-30T08:54:22.331Z,20.09
2017-04-30T08:55:32.881Z,20.38
2017-04-30T08:56:43.176Z,20.28
2017-04-30T08:57:53.501Z,20.1
2017-04-30T08:59:03.483Z,19.7
2017-04-30T09:00:13.838Z,19.7
2017-04-30T09:01:24.375Z,20.2
2017-04-30T09:02:34.386Z,20
2017-04-30T09:03:44.687Z,20
2017-04-30T09:04:54.978Z,20.2
2017-04-30T09:06:05.278Z,20.09
2017-04-30T09:07:15.519Z,20.28
2017-04-30T09:08:25.183Z,20.09
2017-04-30T09:09:35.186Z,19.7
2017-04-30T09:10:45.475Z,20
2017-04-30T09:11:55.459Z,20.09
2017-04-30T09:13:06.295Z,20.18
2017-04-30T09:14:16.581Z,20.18
2017-04-30T09:15:26.617Z,20.09
2017-04-30T09:16:36.910Z,19.7
2017-04-30T09:17:46.577Z,19.8
2017-04-30T09:18:57.142Z,20
2017-04-30T09:20:06.813Z,19.8
2017-04-30T09:21:17.120Z,19.9
2017-04-30T09:22:27.105Z,19.62
2017-04-30T09:23:37.388Z,19.9
2017-04-30T09:24:47.621Z,20.09
2017-04-30T09:25:57.593Z,19.9
2017-04-30T09:27:07.572Z,19.71
2017-04-30T09:28:17.545Z,19.8
2017-04-30T09:29:27.859Z,19.62
2017-04-30T09:30:38.080Z,19.52
2017-04-30T09:31:48.363Z,19.81
2017-04-30T09:32:58.358Z,19.8
2017-04-30T09:34:08.031Z,19.81
2017-04-30T09:35:18.324Z,19.81
2017-04-30T09:36:28.564Z,19.71
2017-04-30T09:37:38.544Z,19.81
2017-04-30T09:38:48.206Z,19.9
2017-04-30T09:39:58.511Z,19.81
2017-04-30T09:41:08.821Z,19.62
2017-04-30T09:42:19.365Z,19.8
2017-04-30T09:43:29.650Z,19.62
2017-04-30T09:44:39.321Z,19.81
2017-04-30T09:45:49.617Z,19.71
2017-04-30T09:46:59.607Z,19.43
2017-04-30T09:48:10.177Z,19.62
2017-04-30T09:49:20.187Z,19.52
2017-04-30T09:50:30.489Z,19.52
2017-04-30T09:51:40.474Z,19.62
2017-04-30T09:52:50.765Z,19.43
2017-04-30T09:54:01.325Z,19.13
2017-04-30T09:55:11.625Z,19.13
2017-04-30T09:56:21.915Z,19.04
2017-04-30T09:57:31.904Z,18.95
2017-04-30T09:58:42.224Z,19.05
2017-04-30T09:59:52.462Z,18.85
2017-04-30T10:01:02.752Z,18.95
2017-04-30T10:02:12.734Z,18.95
2017-04-30T10:03:23.030Z,18.95
2017-04-30T10:04:33.330Z,18.95
2017-04-30T10:05:43.574Z,18.95
2017-04-30T10:06:53.861Z,18.95
2017-04-30T10:08:04.166Z,18.85
2017-04-30T10:09:14.467Z,18.95
2017-04-30T10:10:24.782Z,18.76
2017-04-30T10:11:35.008Z,18.95
2017-04-30T10:12:44.998Z,18.86
2017-04-30T10:13:54.981Z,18.86
2017-04-30T10:15:04.957Z,18.76
2017-04-30T10:16:15.255Z,18.95
2017-04-30T10:17:25.478Z,18.66
2017-04-30T10:18:35.475Z,18.75
2017-04-30T10:19:45.464Z,18.95
2017-04-30T10:20:55.441Z,18.86
2017-04-30T10:22:05.435Z,18.85
2017-04-30T10:23:15.673Z,18.75
2017-04-30T10:24:25.975Z,19.13
2017-04-30T10:25:35.965Z,19.04
2017-04-30T10:26:46.256Z,19.04
2017-04-30T10:27:56.546Z,19.05
2017-04-30T10:29:07.083Z,18.95
2017-04-30T10:30:17.096Z,18.95
2017-04-30T10:31:27.073Z,18.95
2017-04-30T10:32:37.368Z,18.95
2017-04-30T10:33:47.661Z,18.95
2017-04-30T10:34:57.910Z,18.85
2017-04-30T10:36:07.901Z,18.95
2017-04-30T10:37:17.922Z,18.85
2017-04-30T10:38:28.227Z,18.85
2017-04-30T10:39:38.665Z,18.95
2017-04-30T10:40:48.901Z,18.85
2017-04-30T10:41:58.576Z,18.95
2017-04-30T10:43:07.933Z,18.85
2017-04-30T10:44:18.234Z,18.95
2017-04-30T10:45:28.537Z,18.85
2017-04-30T10:46:39.076Z,18.85
2017-04-30T10:47:49.371Z,18.85
2017-04-30T10:48:59.674Z,18.85
2017-04-30T10:50:09.975Z,18.95
2017-04-30T10:51:20.282Z,18.85
2017-04-30T10:52:30.525Z,18.95
2017-04-30T10:53:40.512Z,18.85
2017-04-30T10:54:50.824Z,19.04
2017-04-30T10:56:00.811Z,18.46
2017-04-30T10:57:10.798Z,18.57
2017-04-30T10:58:21.032Z,18.56
2017-04-30T10:59:31.333Z,18.66
2017-04-30T11:00:41.319Z,18.56
2017-04-30T11:01:51.291Z,18.46
2017-04-30T11:03:01.292Z,18.66
2017-04-30T11:04:11.846Z,18.37
2017-04-30T11:05:21.850Z,18.46
2017-04-30T11:06:32.161Z,18.37
2017-04-30T11:07:42.470Z,18.56
2017-04-30T11:08:52.755Z,18.46
2017-04-30T11:10:03.309Z,18.56
2017-04-30T11:11:13.595Z,18.48
2017-04-30T11:12:23.892Z,18.37
2017-04-30T11:13:33.892Z,18.46
2017-04-30T11:14:44.186Z,18.66
2017-04-30T11:15:54.734Z,18.56
2017-04-30T11:17:04.405Z,18.48
2017-04-30T11:18:14.391Z,18.27
2017-04-30T11:19:24.693Z,18.66
2017-04-30T11:20:34.992Z,18.48
2017-04-30T11:21:45.549Z,18.57
2017-04-30T11:22:55.836Z,18.66
2017-04-30T11:24:06.152Z,18.48
2017-04-30T11:25:16.466Z,18.66
2017-04-30T11:26:26.782Z,18.37
2017-04-30T11:27:37.329Z,18.66
2017-04-30T11:28:47.321Z,18.66
2017-04-30T11:29:57.604Z,18.46
2017-04-30T11:31:07.270Z,18.66
2017-04-30T11:32:17.565Z,18.66
2017-04-30T11:33:28.119Z,18.66
2017-04-30T11:34:38.405Z,18.57
2017-04-30T11:35:48.696Z,18.46
2017-04-30T11:36:58.991Z,18.57
2017-04-30T11:38:08.974Z,18.46
2017-04-30T11:39:19.214Z,18.56
2017-04-30T11:40:29.190Z,18.66
2017-04-30T11:41:39.478Z,18.46
2017-04-30T11:42:49.153Z,18.56
2017-04-30T11:43:59.133Z,18.46
2017-04-30T11:45:09.365Z,18.37
2017-04-30T11:46:19.667Z,18.46
2017-04-30T11:47:29.652Z,18.46
2017-04-30T11:48:39.661Z,18.57
2017-04-30T11:49:49.654Z,18.46
2017-04-30T11:51:00.198Z,18.37
2017-04-30T11:52:10.191Z,18.27
2017-04-30T11:53:20.488Z,18.57
2017-04-30T11:54:30.800Z,18.46
2017-04-30T11:55:40.769Z,18.28
2017-04-30T11:56:51.316Z,18.56
2017-04-30T11:58:01.631Z,18.56
2017-04-30T11:59:11.626Z,18.57
2017-04-30T12:00:20.983Z,18.56
2017-04-30T12:01:31.284Z,18.28
2017-04-30T12:02:41.849Z,18.37
2017-04-30T12:03:52.142Z,18.37
2017-04-30T12:05:02.153Z,18.27
2017-04-30T12:06:12.128Z,18.27
2017-04-30T12:07:22.129Z,18.37
2017-04-30T12:08:32.386Z,18.37
2017-04-30T12:09:42.381Z,18.27
2017-04-30T12:10:52.372Z,18.18
2017-04-30T12:12:02.660Z,18.37
2017-04-30T12:13:12.968Z,18.48
2017-04-30T12:14:23.514Z,18.27
2017-04-30T12:15:33.810Z,18.37
2017-04-30T12:16:44.102Z,17.98
2017-04-30T12:17:54.428Z,18.08
2017-04-30T12:19:04.411Z,18.08
2017-04-30T12:20:14.652Z,17.88
2017-04-30T12:21:24.624Z,18.37
2017-04-30T12:22:34.928Z,17.98
2017-04-30T12:23:45.230Z,17.98
2017-04-30T12:24:55.531Z,17.98
2017-04-30T12:26:05.774Z,17.98
2017-04-30T12:27:15.744Z,17.88
2017-04-30T12:28:26.043Z,17.9
2017-04-30T12:29:36.038Z,17.98
2017-04-30T12:30:46.331Z,17.9
2017-04-30T12:31:56.553Z,17.88
2017-04-30T12:33:06.536Z,17.79
2017-04-30T12:34:16.838Z,17.88
2017-04-30T12:35:26.831Z,17.79
2017-04-30T12:36:36.858Z,17.9
2017-04-30T12:37:47.409Z,17.98
2017-04-30T12:38:57.716Z,17.88
2017-04-30T12:40:08.060Z,17.88
2017-04-30T12:41:18.058Z,17.69
2017-04-30T12:42:28.047Z,17.7
2017-04-30T12:43:38.593Z,17.6
2017-04-30T12:44:48.574Z,17.6
2017-04-30T12:45:58.559Z,17.69
2017-04-30T12:47:08.545Z,17.6
2017-04-30T12:48:18.544Z,17.6
2017-04-30T12:49:29.092Z,17.69
2017-04-30T12:50:39.390Z,17.31
2017-04-30T12:51:49.373Z,17.69
2017-04-30T12:52:59.040Z,17.69
2017-04-30T12:54:09.345Z,17.7
2017-04-30T12:55:20.158Z,17.61
2017-04-30T12:56:30.461Z,17.5
2017-04-30T12:57:40.766Z,17.5
2017-04-30T12:58:51.069Z,17.31
2017-04-30T13:00:01.325Z,17.51
2017-04-30T13:01:11.565Z,17.22
2017-04-30T13:02:21.536Z,17.5
2017-04-30T13:03:31.515Z,17.41
2017-04-30T13:04:41.814Z,17.21
2017-04-30T13:05:52.108Z,17.21
2017-04-30T13:07:02.655Z,17.22
2017-04-30T13:08:13.121Z,17.31
2017-04-30T13:09:23.098Z,16.93
2017-04-30T13:10:32.790Z,16.74
2017-04-30T13:11:43.093Z,16.73
2017-04-30T13:12:53.330Z,16.93
2017-04-30T13:14:03.313Z,16.83
2017-04-30T13:15:13.286Z,17.02
2017-04-30T13:16:23.271Z,16.83
2017-04-30T13:17:33.573Z,16.73
2017-04-30T13:18:44.109Z,16.83
2017-04-30T13:19:53.786Z,16.83
2017-04-30T13:21:03.767Z,16.64
2017-04-30T13:22:13.741Z,16.73
2017-04-30T13:23:24.026Z,16.83
2017-04-30T13:24:34.585Z,16.73
2017-04-30T13:25:44.875Z,16.73
2017-04-30T13:26:54.238Z,16.64
2017-04-30T13:28:04.522Z,16.44
2017-04-30T13:29:14.803Z,16.44
2017-04-30T13:30:25.344Z,16.54
2017-04-30T13:31:35.647Z,16.44
2017-04-30T13:32:45.946Z,16.35
2017-04-30T13:33:56.247Z,16.44
2017-04-30T13:35:05.932Z,16.54
2017-04-30T13:36:16.471Z,16.64
2017-04-30T13:37:26.779Z,16.44
2017-04-30T13:38:36.755Z,16.35
2017-04-30T13:39:47.085Z,16.06
2017-04-30T13:40:56.441Z,16.44
2017-04-30T13:42:06.691Z,16.54
2017-04-30T13:43:17.010Z,16.16
2017-04-30T13:44:27.329Z,16.25
2017-04-30T13:45:37.652Z,16.54
2017-04-30T13:46:47.965Z,16.35
2017-04-30T13:47:58.526Z,16.44
2017-04-30T13:49:08.512Z,16.25
2017-04-30T13:50:18.835Z,16.44
2017-04-30T13:51:28.829Z,16.35
2017-04-30T13:52:38.815Z,16.54
2017-04-30T13:53:49.369Z,16.36
2017-04-30T13:54:59.391Z,16.55
2017-04-30T13:56:09.377Z,16.44
2017-04-30T13:57:19.377Z,16.36
2017-04-30T13:58:29.691Z,16.45
2017-04-30T13:59:39.635Z,16.35
2017-04-30T14:00:49.626Z,16.44
2017-04-30T14:01:59.909Z,16.35
2017-04-30T14:03:10.207Z,16.54
2017-04-30T14:04:20.501Z,16.35
2017-04-30T14:05:31.041Z,16.54
2017-04-30T14:06:41.042Z,16.35
2017-04-30T14:07:51.357Z,16.35
2017-04-30T14:09:01.657Z,16.35
2017-04-30T14:10:11.657Z,16.44
2017-04-30T14:11:21.879Z,16.35
2017-04-30T14:12:32.185Z,16.35
2017-04-30T14:13:42.172Z,16.44
2017-04-30T14:14:52.161Z,16.35
2017-04-30T14:16:02.481Z,16.35
2017-04-30T14:17:13.037Z,16.35
2017-04-30T14:18:23.343Z,16.25
2017-04-30T14:19:33.666Z,16.25
2017-04-30T14:20:43.660Z,16.35
2017-04-30T14:21:53.637Z,16.25
2017-04-30T14:23:03.876Z,16.44
2017-04-30T14:24:14.176Z,16.25
2017-04-30T14:25:24.478Z,16.54
2017-04-30T14:26:34.784Z,16.44
2017-04-30T14:27:45.078Z,16.54
2017-04-30T14:28:55.632Z,16.64
2017-04-30T14:30:05.621Z,16.54
2017-04-30T14:31:15.919Z,16.64
2017-04-30T14:32:26.217Z,16.64
2017-04-30T14:33:36.503Z,16.54
2017-04-30T14:34:46.732Z,16.35
2017-04-30T14:35:56.719Z,16.64
2017-04-30T14:37:07.026Z,16.25
2017-04-30T14:38:17.007Z,16.73
2017-04-30T14:39:27.322Z,16.54
2017-04-30T14:40:37.869Z,16.25
2017-04-30T14:41:48.185Z,16.25
2017-04-30T14:42:57.872Z,16.64
2017-04-30T14:44:07.864Z,16.64
2017-04-30T14:45:18.180Z,16.54
2017-04-30T14:46:28.423Z,16.54
2017-04-30T14:47:38.759Z,16.64
2017-04-30T14:48:49.068Z,16.35
2017-04-30T14:49:59.075Z,16.54
2017-04-30T14:51:09.374Z,16.64
2017-04-30T14:52:19.927Z,16.54
2017-04-30T14:53:29.922Z,16.25
2017-04-30T14:54:40.218Z,16.54
2017-04-30T14:55:50.524Z,16.44
2017-04-30T14:57:00.818Z,16.35
2017-04-30T14:58:11.400Z,16.54
2017-04-30T14:59:21.694Z,16.64
2017-04-30T15:00:32.015Z,16.54
2017-04-30T15:01:41.994Z,16.54
2017-04-30T15:02:51.971Z,16.35
2017-04-30T15:04:02.199Z,16.25
2017-04-30T15:05:12.178Z,16.64
2017-04-30T15:06:22.476Z,16.54